sensor_id;sensor_type;location;lat;lon;timestamp;temperature;humidity
33994;DHT22;20673;48.980;8.138;2022-10-31T00:01:18;10.00;99.90
33994;DHT22;20673;48.980;8.138;2022-10-31T00:03:46;10.10;99.90
33994;DHT22;20673;48.980;8.138;2022-10-31T00:06:13;10.10;99.90
33994;DHT22;20673;48.980;8.138;2022-10-31T00:08:39;10.10;99.90
33994;DHT22;20673;48.980;8.138;2022-10-31T00:11:09;10.00;99.90
33994;DHT22;20673;48.980;8.138;2022-10-31T00:13:35;10.00;99.90
33994;DHT22;20673;48.980;8.138;2022-10-31T00:16:01;9.90;99.90
33994;DHT22;20673;48.980;8.138;2022-10-31T00:18:27;9.90;99.90
33994;DHT22;20673;48.980;8.138;2022-10-31T00:21:01;9.80;99.90
33994;DHT22;20673;48.980;8.138;2022-10-31T00:23:28;9.80;99.90
33994;DHT22;20673;48.980;8.138;2022-10-31T00:25:54;9.80;99.90
33994;DHT22;20673;48.980;8.138;2022-10-31T00:28:22;9.80;99.90
33994;DHT22;20673;48.980;8.138;2022-10-31T00:30:48;9.80;99.90
33994;DHT22;20673;48.980;8.138;2022-10-31T00:33:14;9.70;99.90
33994;DHT22;20673;48.980;8.138;2022-10-31T00:35:39;9.70;99.90
33994;DHT22;20673;48.980;8.138;2022-10-31T00:38:05;9.70;99.90
33994;DHT22;20673;48.980;8.138;2022-10-31T00:40:31;9.60;99.90
33994;DHT22;20673;48.980;8.138;2022-10-31T00:42:57;9.60;99.90
33994;DHT22;20673;48.980;8.138;2022-10-31T00:45:23;9.60;99.90
33994;DHT22;20673;48.980;8.138;2022-10-31T00:47:49;9.70;99.90
33994;DHT22;20673;48.980;8.138;2022-10-31T00:50:15;9.70;99.90
33994;DHT22;20673;48.980;8.138;2022-10-31T00:52:41;9.60;99.90
33994;DHT22;20673;48.980;8.138;2022-10-31T00:55:07;9.60;99.90
33994;DHT22;20673;48.980;8.138;2022-10-31T00:57:33;9.60;99.90
33994;DHT22;20673;48.980;8.138;2022-10-31T00:59:59;9.70;99.90
33994;DHT22;20673;48.980;8.138;2022-10-31T01:02:25;9.80;99.90
33994;DHT22;20673;48.980;8.138;2022-10-31T01:04:51;9.80;99.90
33994;DHT22;20673;48.980;8.138;2022-10-31T01:07:17;9.80;99.90
33994;DHT22;20673;48.980;8.138;2022-10-31T01:09:43;9.70;99.90
33994;DHT22;20673;48.980;8.138;2022-10-31T01:12:09;9.60;99.90
33994;DHT22;20673;48.980;8.138;2022-10-31T01:14:35;9.50;99.90
33994;DHT22;20673;48.980;8.138;2022-10-31T01:17:01;9.50;99.90
33994;DHT22;20673;48.980;8.138;2022-10-31T01:19:27;9.50;99.90
33994;DHT22;20673;48.980;8.138;2022-10-31T01:21:54;9.50;99.90
33994;DHT22;20673;48.980;8.138;2022-10-31T01:24:20;9.50;99.90
33994;DHT22;20673;48.980;8.138;2022-10-31T01:26:46;9.60;99.90
33994;DHT22;20673;48.980;8.138;2022-10-31T01:29:12;9.60;99.90
33994;DHT22;20673;48.980;8.138;2022-10-31T01:31:38;9.50;99.90
33994;DHT22;20673;48.980;8.138;2022-10-31T01:34:05;9.40;99.90
33994;DHT22;20673;48.980;8.138;2022-10-31T01:36:35;9.40;99.90
33994;DHT22;20673;48.980;8.138;2022-10-31T01:39:04;9.40;99.90
33994;DHT22;20673;48.980;8.138;2022-10-31T01:41:33;9.40;99.90
33994;DHT22;20673;48.980;8.138;2022-10-31T01:44:02;9.50;99.90
33994;DHT22;20673;48.980;8.138;2022-10-31T01:46:34;9.50;99.90
33994;DHT22;20673;48.980;8.138;2022-10-31T01:49:11;9.30;99.90
33994;DHT22;20673;48.980;8.138;2022-10-31T01:51:37;9.30;99.90
33994;DHT22;20673;48.980;8.138;2022-10-31T01:54:06;9.30;99.90
33994;DHT22;20673;48.980;8.138;2022-10-31T01:56:35;9.30;99.90
33994;DHT22;20673;48.980;8.138;2022-10-31T01:59:04;9.40;99.90
33994;DHT22;20673;48.980;8.138;2022-10-31T02:01:34;9.30;99.90
33994;DHT22;20673;48.980;8.138;2022-10-31T02:04:00;9.30;99.90
33994;DHT22;20673;48.980;8.138;2022-10-31T02:06:35;9.20;99.90
33994;DHT22;20673;48.980;8.138;2022-10-31T02:09:08;9.20;99.90
33994;DHT22;20673;48.980;8.138;2022-10-31T02:11:34;9.20;99.90
33994;DHT22;20673;48.980;8.138;2022-10-31T02:14:02;9.20;99.90
33994;DHT22;20673;48.980;8.138;2022-10-31T02:16:28;9.20;99.90
33994;DHT22;20673;48.980;8.138;2022-10-31T02:18:54;9.20;99.90
33994;DHT22;20673;48.980;8.138;2022-10-31T02:21:43;9.10;99.90
33994;DHT22;20673;48.980;8.138;2022-10-31T02:32:34;9.20;99.90
33994;DHT22;20673;48.980;8.138;2022-10-31T02:35:07;9.20;99.90
33994;DHT22;20673;48.980;8.138;2022-10-31T02:37:57;9.10;99.90
33994;DHT22;20673;48.980;8.138;2022-10-31T02:40:25;9.20;99.90
33994;DHT22;20673;48.980;8.138;2022-10-31T02:48:23;9.20;99.90
33994;DHT22;20673;48.980;8.138;2022-10-31T02:50:48;9.20;99.90
33994;DHT22;20673;48.980;8.138;2022-10-31T02:53:15;9.20;99.90
33994;DHT22;20673;48.980;8.138;2022-10-31T02:55:44;9.20;99.90
33994;DHT22;20673;48.980;8.138;2022-10-31T02:58:14;9.20;99.90
33994;DHT22;20673;48.980;8.138;2022-10-31T03:09:21;9.10;99.90
33994;DHT22;20673;48.980;8.138;2022-10-31T03:12:04;9.00;99.90
33994;DHT22;20673;48.980;8.138;2022-10-31T03:14:50;9.00;99.90
33994;DHT22;20673;48.980;8.138;2022-10-31T03:17:20;9.00;99.90
33994;DHT22;20673;48.980;8.138;2022-10-31T03:19:49;9.00;99.90
33994;DHT22;20673;48.980;8.138;2022-10-31T03:22:20;9.00;99.90
33994;DHT22;20673;48.980;8.138;2022-10-31T03:24:48;9.00;99.90
33994;DHT22;20673;48.980;8.138;2022-10-31T03:27:21;8.90;99.90
33994;DHT22;20673;48.980;8.138;2022-10-31T03:29:54;9.00;99.90
33994;DHT22;20673;48.980;8.138;2022-10-31T03:32:23;9.00;99.90
33994;DHT22;20673;48.980;8.138;2022-10-31T03:34:55;9.00;99.90
33994;DHT22;20673;48.980;8.138;2022-10-31T03:37:24;9.00;99.90
33994;DHT22;20673;48.980;8.138;2022-10-31T03:39:52;9.00;99.90
33994;DHT22;20673;48.980;8.138;2022-10-31T03:42:22;8.90;99.90
33994;DHT22;20673;48.980;8.138;2022-10-31T03:44:59;8.90;99.90
33994;DHT22;20673;48.980;8.138;2022-10-31T03:47:26;8.90;99.90
33994;DHT22;20673;48.980;8.138;2022-10-31T03:49:52;9.00;99.90
33994;DHT22;20673;48.980;8.138;2022-10-31T03:52:29;9.10;99.90
33994;DHT22;20673;48.980;8.138;2022-10-31T03:55:12;9.10;99.90
33994;DHT22;20673;48.980;8.138;2022-10-31T04:00:18;9.00;99.90
33994;DHT22;20673;48.980;8.138;2022-10-31T04:02:47;8.90;99.90
33994;DHT22;20673;48.980;8.138;2022-10-31T04:05:15;8.80;99.90
33994;DHT22;20673;48.980;8.138;2022-10-31T04:07:43;8.80;99.90
33994;DHT22;20673;48.980;8.138;2022-10-31T04:10:12;8.90;99.90
33994;DHT22;20673;48.980;8.138;2022-10-31T04:12:40;9.00;99.90
33994;DHT22;20673;48.980;8.138;2022-10-31T04:15:09;9.10;99.90
33994;DHT22;20673;48.980;8.138;2022-10-31T04:17:36;9.10;99.90
33994;DHT22;20673;48.980;8.138;2022-10-31T04:20:06;9.00;99.90
33994;DHT22;20673;48.980;8.138;2022-10-31T04:22:32;8.90;99.90
33994;DHT22;20673;48.980;8.138;2022-10-31T04:24:58;8.80;99.90
33994;DHT22;20673;48.980;8.138;2022-10-31T04:27:24;8.70;99.90
33994;DHT22;20673;48.980;8.138;2022-10-31T04:29:50;8.60;99.90
33994;DHT22;20673;48.980;8.138;2022-10-31T04:32:16;8.60;99.90
33994;DHT22;20673;48.980;8.138;2022-10-31T04:34:43;8.50;99.90
33994;DHT22;20673;48.980;8.138;2022-10-31T04:37:08;8.50;99.90
33994;DHT22;20673;48.980;8.138;2022-10-31T04:39:34;8.40;99.90
33994;DHT22;20673;48.980;8.138;2022-10-31T04:42:00;8.70;99.90
33994;DHT22;20673;48.980;8.138;2022-10-31T04:44:26;8.70;99.90
33994;DHT22;20673;48.980;8.138;2022-10-31T04:46:52;8.70;99.90
33994;DHT22;20673;48.980;8.138;2022-10-31T04:49:18;8.60;99.90
33994;DHT22;20673;48.980;8.138;2022-10-31T04:51:44;8.40;99.90
33994;DHT22;20673;48.980;8.138;2022-10-31T04:54:10;8.40;99.90
33994;DHT22;20673;48.980;8.138;2022-10-31T04:56:36;8.30;99.90
33994;DHT22;20673;48.980;8.138;2022-10-31T04:59:02;8.30;99.90
33994;DHT22;20673;48.980;8.138;2022-10-31T05:01:28;8.30;99.90
33994;DHT22;20673;48.980;8.138;2022-10-31T05:03:54;8.30;99.90
33994;DHT22;20673;48.980;8.138;2022-10-31T05:06:20;8.30;99.90
33994;DHT22;20673;48.980;8.138;2022-10-31T05:08:46;8.40;99.90
33994;DHT22;20673;48.980;8.138;2022-10-31T05:11:12;8.40;99.90
33994;DHT22;20673;48.980;8.138;2022-10-31T05:13:38;8.30;99.90
33994;DHT22;20673;48.980;8.138;2022-10-31T05:16:04;8.20;99.90
33994;DHT22;20673;48.980;8.138;2022-10-31T05:18:30;8.10;99.90
33994;DHT22;20673;48.980;8.138;2022-10-31T05:20:56;8.10;99.90
33994;DHT22;20673;48.980;8.138;2022-10-31T05:23:22;8.00;99.90
33994;DHT22;20673;48.980;8.138;2022-10-31T05:25:48;8.00;99.90
33994;DHT22;20673;48.980;8.138;2022-10-31T05:28:15;8.00;99.90
33994;DHT22;20673;48.980;8.138;2022-10-31T05:30:40;8.00;99.90
33994;DHT22;20673;48.980;8.138;2022-10-31T05:33:07;8.10;99.90
33994;DHT22;20673;48.980;8.138;2022-10-31T05:35:33;8.00;99.90
33994;DHT22;20673;48.980;8.138;2022-10-31T05:37:59;8.00;99.90
33994;DHT22;20673;48.980;8.138;2022-10-31T05:40:25;8.00;99.90
33994;DHT22;20673;48.980;8.138;2022-10-31T05:42:53;7.90;99.90
33994;DHT22;20673;48.980;8.138;2022-10-31T05:45:20;7.90;99.90
33994;DHT22;20673;48.980;8.138;2022-10-31T05:47:50;7.90;99.90
33994;DHT22;20673;48.980;8.138;2022-10-31T05:50:17;7.80;99.90
33994;DHT22;20673;48.980;8.138;2022-10-31T05:52:43;7.90;99.90
33994;DHT22;20673;48.980;8.138;2022-10-31T05:55:10;8.00;99.90
33994;DHT22;20673;48.980;8.138;2022-10-31T05:57:36;8.00;99.90
33994;DHT22;20673;48.980;8.138;2022-10-31T06:00:02;7.90;99.90
33994;DHT22;20673;48.980;8.138;2022-10-31T06:02:30;7.90;99.90
33994;DHT22;20673;48.980;8.138;2022-10-31T06:04:58;7.90;99.90
33994;DHT22;20673;48.980;8.138;2022-10-31T06:07:23;8.00;99.90
33994;DHT22;20673;48.980;8.138;2022-10-31T06:09:49;7.90;99.90
33994;DHT22;20673;48.980;8.138;2022-10-31T06:12:15;7.90;99.90
33994;DHT22;20673;48.980;8.138;2022-10-31T06:14:41;7.90;99.90
33994;DHT22;20673;48.980;8.138;2022-10-31T06:17:07;7.90;99.90
33994;DHT22;20673;48.980;8.138;2022-10-31T06:19:33;8.00;99.90
33994;DHT22;20673;48.980;8.138;2022-10-31T06:21:59;8.10;99.90
33994;DHT22;20673;48.980;8.138;2022-10-31T06:24:25;8.00;99.90
33994;DHT22;20673;48.980;8.138;2022-10-31T06:26:51;8.00;99.90
33994;DHT22;20673;48.980;8.138;2022-10-31T06:29:17;8.00;99.90
33994;DHT22;20673;48.980;8.138;2022-10-31T06:31:43;8.00;99.90
33994;DHT22;20673;48.980;8.138;2022-10-31T06:34:09;8.10;99.90
33994;DHT22;20673;48.980;8.138;2022-10-31T06:36:35;8.10;99.90
33994;DHT22;20673;48.980;8.138;2022-10-31T06:39:01;8.20;99.90
33994;DHT22;20673;48.980;8.138;2022-10-31T06:41:27;8.30;99.90
33994;DHT22;20673;48.980;8.138;2022-10-31T06:43:53;8.30;99.90
33994;DHT22;20673;48.980;8.138;2022-10-31T06:46:19;8.40;99.90
33994;DHT22;20673;48.980;8.138;2022-10-31T06:48:45;8.60;99.90
33994;DHT22;20673;48.980;8.138;2022-10-31T06:51:11;8.60;99.90
33994;DHT22;20673;48.980;8.138;2022-10-31T06:53:37;8.60;99.90
33994;DHT22;20673;48.980;8.138;2022-10-31T06:56:03;8.60;99.90
33994;DHT22;20673;48.980;8.138;2022-10-31T06:58:29;8.70;99.90
33994;DHT22;20673;48.980;8.138;2022-10-31T07:00:58;8.80;99.90
33994;DHT22;20673;48.980;8.138;2022-10-31T07:03:26;8.90;99.90
33994;DHT22;20673;48.980;8.138;2022-10-31T07:05:54;9.00;99.90
33994;DHT22;20673;48.980;8.138;2022-10-31T07:08:21;9.00;99.90
33994;DHT22;20673;48.980;8.138;2022-10-31T07:10:50;9.10;99.90
33994;DHT22;20673;48.980;8.138;2022-10-31T07:13:19;9.20;99.90
33994;DHT22;20673;48.980;8.138;2022-10-31T07:15:47;9.30;99.90
33994;DHT22;20673;48.980;8.138;2022-10-31T07:18:13;9.40;99.90
33994;DHT22;20673;48.980;8.138;2022-10-31T07:20:39;9.50;99.90
33994;DHT22;20673;48.980;8.138;2022-10-31T07:23:05;9.70;99.90
33994;DHT22;20673;48.980;8.138;2022-10-31T07:25:31;9.80;99.90
33994;DHT22;20673;48.980;8.138;2022-10-31T07:27:57;9.90;99.90
33994;DHT22;20673;48.980;8.138;2022-10-31T07:30:23;10.00;99.90
33994;DHT22;20673;48.980;8.138;2022-10-31T07:32:49;10.20;99.90
33994;DHT22;20673;48.980;8.138;2022-10-31T07:37:45;10.50;99.90
33994;DHT22;20673;48.980;8.138;2022-10-31T07:40:12;10.60;99.90
33994;DHT22;20673;48.980;8.138;2022-10-31T07:42:39;10.70;99.90
33994;DHT22;20673;48.980;8.138;2022-10-31T07:45:07;10.80;99.90
33994;DHT22;20673;48.980;8.138;2022-10-31T07:47:41;10.90;99.90
33994;DHT22;20673;48.980;8.138;2022-10-31T07:50:09;11.00;99.90
33994;DHT22;20673;48.980;8.138;2022-10-31T07:52:37;11.10;99.90
33994;DHT22;20673;48.980;8.138;2022-10-31T07:55:03;11.30;99.90
33994;DHT22;20673;48.980;8.138;2022-10-31T07:57:30;11.40;99.90
33994;DHT22;20673;48.980;8.138;2022-10-31T07:59:57;11.60;99.90
33994;DHT22;20673;48.980;8.138;2022-10-31T08:02:23;11.80;99.90
33994;DHT22;20673;48.980;8.138;2022-10-31T08:04:49;11.90;99.90
33994;DHT22;20673;48.980;8.138;2022-10-31T08:07:15;12.10;99.90
33994;DHT22;20673;48.980;8.138;2022-10-31T08:09:41;12.30;99.90
33994;DHT22;20673;48.980;8.138;2022-10-31T08:12:07;12.50;99.90
33994;DHT22;20673;48.980;8.138;2022-10-31T08:14:33;12.70;99.90
33994;DHT22;20673;48.980;8.138;2022-10-31T08:16:59;12.80;99.90
33994;DHT22;20673;48.980;8.138;2022-10-31T08:19:25;12.90;99.90
33994;DHT22;20673;48.980;8.138;2022-10-31T08:21:52;12.90;99.90
33994;DHT22;20673;48.980;8.138;2022-10-31T08:24:25;13.00;99.90
33994;DHT22;20673;48.980;8.138;2022-10-31T08:26:48;13.20;99.90
33994;DHT22;20673;48.980;8.138;2022-10-31T08:29:14;13.40;99.90
33994;DHT22;20673;48.980;8.138;2022-10-31T08:31:41;13.60;99.90
33994;DHT22;20673;48.980;8.138;2022-10-31T08:34:07;13.80;99.90
33994;DHT22;20673;48.980;8.138;2022-10-31T08:36:33;13.90;99.90
33994;DHT22;20673;48.980;8.138;2022-10-31T08:38:59;14.00;99.90
33994;DHT22;20673;48.980;8.138;2022-10-31T08:41:26;14.00;99.90
33994;DHT22;20673;48.980;8.138;2022-10-31T08:43:51;13.90;99.90
33994;DHT22;20673;48.980;8.138;2022-10-31T08:46:17;14.10;99.90
33994;DHT22;20673;48.980;8.138;2022-10-31T08:48:44;14.10;99.90
33994;DHT22;20673;48.980;8.138;2022-10-31T08:51:11;14.20;99.90
33994;DHT22;20673;48.980;8.138;2022-10-31T08:53:37;14.30;99.90
33994;DHT22;20673;48.980;8.138;2022-10-31T08:56:03;14.50;99.90
33994;DHT22;20673;48.980;8.138;2022-10-31T08:58:29;14.70;99.90
33994;DHT22;20673;48.980;8.138;2022-10-31T09:00:55;14.80;99.90
33994;DHT22;20673;48.980;8.138;2022-10-31T09:03:25;14.90;99.90
33994;DHT22;20673;48.980;8.138;2022-10-31T09:05:55;15.00;99.90
33994;DHT22;20673;48.980;8.138;2022-10-31T09:08:23;15.20;99.90
33994;DHT22;20673;48.980;8.138;2022-10-31T09:10:49;15.40;99.90
33994;DHT22;20673;48.980;8.138;2022-10-31T09:13:17;15.60;99.90
33994;DHT22;20673;48.980;8.138;2022-10-31T09:15:45;15.80;99.90
33994;DHT22;20673;48.980;8.138;2022-10-31T09:18:14;16.20;99.90
33994;DHT22;20673;48.980;8.138;2022-10-31T09:20:41;16.60;99.90
33994;DHT22;20673;48.980;8.138;2022-10-31T09:23:10;16.70;99.90
33994;DHT22;20673;48.980;8.138;2022-10-31T09:25:47;16.90;99.90
33994;DHT22;20673;48.980;8.138;2022-10-31T09:28:15;17.20;99.90
33994;DHT22;20673;48.980;8.138;2022-10-31T09:30:45;17.20;99.90
33994;DHT22;20673;48.980;8.138;2022-10-31T09:33:13;17.60;99.90
33994;DHT22;20673;48.980;8.138;2022-10-31T09:35:40;17.40;99.90
33994;DHT22;20673;48.980;8.138;2022-10-31T09:38:08;17.40;99.90
33994;DHT22;20673;48.980;8.138;2022-10-31T09:40:35;17.80;99.90
33994;DHT22;20673;48.980;8.138;2022-10-31T09:48:22;18.40;99.90
33994;DHT22;20673;48.980;8.138;2022-10-31T09:50:52;18.30;99.90
33994;DHT22;20673;48.980;8.138;2022-10-31T09:53:30;18.20;99.90
33994;DHT22;20673;48.980;8.138;2022-10-31T09:55:57;18.60;99.90
33994;DHT22;20673;48.980;8.138;2022-10-31T09:58:25;18.70;99.90
33994;DHT22;20673;48.980;8.138;2022-10-31T10:00:53;18.60;99.90
33994;DHT22;20673;48.980;8.138;2022-10-31T10:06:01;17.80;99.90
33994;DHT22;20673;48.980;8.138;2022-10-31T10:08:27;17.90;99.90
33994;DHT22;20673;48.980;8.138;2022-10-31T10:13:36;18.50;99.90
33994;DHT22;20673;48.980;8.138;2022-10-31T10:16:40;18.70;99.90
33994;DHT22;20673;48.980;8.138;2022-10-31T10:21:42;18.90;99.90
33994;DHT22;20673;48.980;8.138;2022-10-31T10:27:15;18.80;99.90
33994;DHT22;20673;48.980;8.138;2022-10-31T10:29:50;19.10;99.90
33994;DHT22;20673;48.980;8.138;2022-10-31T10:32:23;18.80;99.90
33994;DHT22;20673;48.980;8.138;2022-10-31T10:34:51;19.10;99.90
33994;DHT22;20673;48.980;8.138;2022-10-31T10:37:22;19.10;99.90
33994;DHT22;20673;48.980;8.138;2022-10-31T10:40:07;18.90;99.90
33994;DHT22;20673;48.980;8.138;2022-10-31T10:42:34;18.70;99.90
33994;DHT22;20673;48.980;8.138;2022-10-31T10:45:20;18.50;99.90
33994;DHT22;20673;48.980;8.138;2022-10-31T10:48:30;18.20;99.90
33994;DHT22;20673;48.980;8.138;2022-10-31T10:51:10;18.00;99.90
33994;DHT22;20673;48.980;8.138;2022-10-31T10:53:40;17.90;99.90
33994;DHT22;20673;48.980;8.138;2022-10-31T10:56:16;17.70;99.90
33994;DHT22;20673;48.980;8.138;2022-10-31T10:58:45;17.80;99.90
33994;DHT22;20673;48.980;8.138;2022-10-31T11:01:12;17.80;99.90
33994;DHT22;20673;48.980;8.138;2022-10-31T11:03:39;17.70;99.90
33994;DHT22;20673;48.980;8.138;2022-10-31T11:06:15;17.80;99.90
33994;DHT22;20673;48.980;8.138;2022-10-31T11:08:49;17.80;99.90
33994;DHT22;20673;48.980;8.138;2022-10-31T11:11:25;17.80;99.90
33994;DHT22;20673;48.980;8.138;2022-10-31T11:14:02;17.80;99.90
33994;DHT22;20673;48.980;8.138;2022-10-31T11:16:32;17.80;99.90
33994;DHT22;20673;48.980;8.138;2022-10-31T11:19:44;17.70;99.90
33994;DHT22;20673;48.980;8.138;2022-10-31T11:21:40;17.70;99.90
33994;DHT22;20673;48.980;8.138;2022-10-31T11:26:37;17.70;99.90
33994;DHT22;20673;48.980;8.138;2022-10-31T11:29:09;17.50;99.90
33994;DHT22;20673;48.980;8.138;2022-10-31T11:31:41;17.40;99.90
33994;DHT22;20673;48.980;8.138;2022-10-31T11:34:28;17.40;99.90
33994;DHT22;20673;48.980;8.138;2022-10-31T11:36:51;17.40;99.90
33994;DHT22;20673;48.980;8.138;2022-10-31T11:39:21;17.30;99.90
33994;DHT22;20673;48.980;8.138;2022-10-31T11:41:49;17.40;99.90
33994;DHT22;20673;48.980;8.138;2022-10-31T11:44:21;17.50;99.90
33994;DHT22;20673;48.980;8.138;2022-10-31T11:49:36;17.50;99.90
33994;DHT22;20673;48.980;8.138;2022-10-31T11:52:08;17.70;99.90
33994;DHT22;20673;48.980;8.138;2022-10-31T11:54:51;17.50;99.90
33994;DHT22;20673;48.980;8.138;2022-10-31T11:57:31;17.40;99.90
33994;DHT22;20673;48.980;8.138;2022-10-31T12:00:00;17.60;99.90
33994;DHT22;20673;48.980;8.138;2022-10-31T12:02:28;17.60;99.90
33994;DHT22;20673;48.980;8.138;2022-10-31T12:05:06;17.70;99.90
33994;DHT22;20673;48.980;8.138;2022-10-31T12:07:34;17.40;99.90
33994;DHT22;20673;48.980;8.138;2022-10-31T12:10:00;17.40;99.90
33994;DHT22;20673;48.980;8.138;2022-10-31T12:36:59;17.20;99.90
33994;DHT22;20673;48.980;8.138;2022-10-31T12:39:42;17.10;99.90
33994;DHT22;20673;48.980;8.138;2022-10-31T12:55:55;20.80;99.90
33994;DHT22;20673;48.980;8.138;2022-10-31T12:58:46;21.40;99.90
33994;DHT22;20673;48.980;8.138;2022-10-31T13:01:12;21.60;99.90
33994;DHT22;20673;48.980;8.138;2022-10-31T13:06:29;21.10;99.90
33994;DHT22;20673;48.980;8.138;2022-10-31T13:08:55;20.70;99.90
33994;DHT22;20673;48.980;8.138;2022-10-31T13:11:25;20.40;99.90
33994;DHT22;20673;48.980;8.138;2022-10-31T13:14:05;20.70;99.90
33994;DHT22;20673;48.980;8.138;2022-10-31T13:16:40;20.90;99.90
33994;DHT22;20673;48.980;8.138;2022-10-31T13:19:22;21.10;99.90
33994;DHT22;20673;48.980;8.138;2022-10-31T13:24:59;21.20;99.90
33994;DHT22;20673;48.980;8.138;2022-10-31T13:27:42;22.10;99.90
33994;DHT22;20673;48.980;8.138;2022-10-31T13:30:19;22.80;99.90
33994;DHT22;20673;48.980;8.138;2022-10-31T13:32:59;22.60;99.90
33994;DHT22;20673;48.980;8.138;2022-10-31T13:35:31;23.20;99.90
33994;DHT22;20673;48.980;8.138;2022-10-31T13:43:25;21.40;99.90
33994;DHT22;20673;48.980;8.138;2022-10-31T13:45:55;20.80;99.90
33994;DHT22;20673;48.980;8.138;2022-10-31T13:50:58;20.90;99.90
33994;DHT22;20673;48.980;8.138;2022-10-31T13:56:18;20.90;99.90
33994;DHT22;20673;48.980;8.138;2022-10-31T13:58:53;20.80;99.90
33994;DHT22;20673;48.980;8.138;2022-10-31T14:01:21;20.40;99.90
33994;DHT22;20673;48.980;8.138;2022-10-31T14:03:55;20.50;99.90
33994;DHT22;20673;48.980;8.138;2022-10-31T14:06:17;20.40;99.90
33994;DHT22;20673;48.980;8.138;2022-10-31T14:08:50;19.90;99.90
33994;DHT22;20673;48.980;8.138;2022-10-31T14:11:23;19.70;99.90
33994;DHT22;20673;48.980;8.138;2022-10-31T14:13:53;19.30;99.90
33994;DHT22;20673;48.980;8.138;2022-10-31T14:18:59;19.00;99.90
33994;DHT22;20673;48.980;8.138;2022-10-31T14:21:28;18.80;99.90
33994;DHT22;20673;48.980;8.138;2022-10-31T14:23:56;18.60;99.90
33994;DHT22;20673;48.980;8.138;2022-10-31T14:29:20;18.40;99.90
33994;DHT22;20673;48.980;8.138;2022-10-31T14:31:42;18.40;99.90
33994;DHT22;20673;48.980;8.138;2022-10-31T14:36:53;18.20;99.90
33994;DHT22;20673;48.980;8.138;2022-10-31T14:42:11;17.80;99.90
33994;DHT22;20673;48.980;8.138;2022-10-31T14:52:53;17.50;99.90
33994;DHT22;20673;48.980;8.138;2022-10-31T14:55:21;17.50;99.90
33994;DHT22;20673;48.980;8.138;2022-10-31T14:57:54;17.30;99.90
33994;DHT22;20673;48.980;8.138;2022-10-31T15:00:23;17.30;99.90
33994;DHT22;20673;48.980;8.138;2022-10-31T15:05:23;17.10;99.90
33994;DHT22;20673;48.980;8.138;2022-10-31T15:07:52;17.10;99.90
33994;DHT22;20673;48.980;8.138;2022-10-31T15:12:55;16.90;99.90
33994;DHT22;20673;48.980;8.138;2022-10-31T15:15:22;16.80;99.90
33994;DHT22;20673;48.980;8.138;2022-10-31T15:17:54;16.80;99.90
33994;DHT22;20673;48.980;8.138;2022-10-31T15:20:22;16.70;99.90
33994;DHT22;20673;48.980;8.138;2022-10-31T15:22:51;16.60;99.90
33994;DHT22;20673;48.980;8.138;2022-10-31T15:25:20;16.50;99.90
33994;DHT22;20673;48.980;8.138;2022-10-31T15:27:48;16.40;99.90
33994;DHT22;20673;48.980;8.138;2022-10-31T15:30:28;16.40;99.90
33994;DHT22;20673;48.980;8.138;2022-10-31T15:32:45;16.30;99.90
33994;DHT22;20673;48.980;8.138;2022-10-31T15:35:14;16.20;99.90
33994;DHT22;20673;48.980;8.138;2022-10-31T15:37:44;16.20;99.90
33994;DHT22;20673;48.980;8.138;2022-10-31T15:40:17;16.20;99.90
33994;DHT22;20673;48.980;8.138;2022-10-31T15:42:50;16.20;99.90
33994;DHT22;20673;48.980;8.138;2022-10-31T15:45:23;16.20;99.90
33994;DHT22;20673;48.980;8.138;2022-10-31T15:47:59;16.10;99.90
33994;DHT22;20673;48.980;8.138;2022-10-31T15:52:57;16.10;99.90
33994;DHT22;20673;48.980;8.138;2022-10-31T15:55:25;16.10;99.90
33994;DHT22;20673;48.980;8.138;2022-10-31T15:57:58;16.10;99.90
33994;DHT22;20673;48.980;8.138;2022-10-31T16:00:27;16.00;99.90
33994;DHT22;20673;48.980;8.138;2022-10-31T16:03:06;16.00;99.90
33994;DHT22;20673;48.980;8.138;2022-10-31T16:05:43;15.80;99.90
33994;DHT22;20673;48.980;8.138;2022-10-31T16:13:40;15.30;99.90
33994;DHT22;20673;48.980;8.138;2022-10-31T16:16:12;15.40;99.90
33994;DHT22;20673;48.980;8.138;2022-10-31T16:18:40;15.30;99.90
33994;DHT22;20673;48.980;8.138;2022-10-31T16:21:08;15.20;99.90
33994;DHT22;20673;48.980;8.138;2022-10-31T16:23:35;15.10;99.90
33994;DHT22;20673;48.980;8.138;2022-10-31T16:26:07;15.10;99.90
33994;DHT22;20673;48.980;8.138;2022-10-31T16:28:33;15.00;99.90
33994;DHT22;20673;48.980;8.138;2022-10-31T16:31:12;14.90;99.90
33994;DHT22;20673;48.980;8.138;2022-10-31T16:33:40;14.80;99.90
33994;DHT22;20673;48.980;8.138;2022-10-31T16:38:57;14.80;99.90
33994;DHT22;20673;48.980;8.138;2022-10-31T16:41:23;14.70;99.90
33994;DHT22;20673;48.980;8.138;2022-10-31T16:43:50;14.50;99.90
33994;DHT22;20673;48.980;8.138;2022-10-31T16:46:24;14.70;99.90
33994;DHT22;20673;48.980;8.138;2022-10-31T16:48:53;14.60;99.90
33994;DHT22;20673;48.980;8.138;2022-10-31T16:51:20;14.50;99.90
33994;DHT22;20673;48.980;8.138;2022-10-31T16:53:47;14.50;99.90
33994;DHT22;20673;48.980;8.138;2022-10-31T16:56:16;14.40;99.90
33994;DHT22;20673;48.980;8.138;2022-10-31T16:58:44;14.50;99.90
33994;DHT22;20673;48.980;8.138;2022-10-31T17:01:11;14.60;99.90
33994;DHT22;20673;48.980;8.138;2022-10-31T17:03:38;14.70;99.90
33994;DHT22;20673;48.980;8.138;2022-10-31T17:06:12;14.70;99.90
33994;DHT22;20673;48.980;8.138;2022-10-31T17:08:41;14.60;99.90
33994;DHT22;20673;48.980;8.138;2022-10-31T17:11:08;14.60;99.90
33994;DHT22;20673;48.980;8.138;2022-10-31T17:13:42;14.60;99.90
33994;DHT22;20673;48.980;8.138;2022-10-31T17:16:09;14.50;99.90
33994;DHT22;20673;48.980;8.138;2022-10-31T17:18:38;14.40;99.90
33994;DHT22;20673;48.980;8.138;2022-10-31T17:21:04;14.40;99.90
33994;DHT22;20673;48.980;8.138;2022-10-31T17:23:30;14.50;99.90
33994;DHT22;20673;48.980;8.138;2022-10-31T17:25:57;14.40;99.90
33994;DHT22;20673;48.980;8.138;2022-10-31T17:28:24;14.20;99.90
33994;DHT22;20673;48.980;8.138;2022-10-31T17:30:58;14.10;99.90
33994;DHT22;20673;48.980;8.138;2022-10-31T17:33:23;14.20;99.90
33994;DHT22;20673;48.980;8.138;2022-10-31T17:35:49;14.10;99.90
33994;DHT22;20673;48.980;8.138;2022-10-31T17:38:18;14.10;99.90
33994;DHT22;20673;48.980;8.138;2022-10-31T17:40:44;14.20;99.90
33994;DHT22;20673;48.980;8.138;2022-10-31T17:43:10;14.00;99.90
33994;DHT22;20673;48.980;8.138;2022-10-31T17:45:40;14.00;99.90
33994;DHT22;20673;48.980;8.138;2022-10-31T17:48:06;14.00;99.90
33994;DHT22;20673;48.980;8.138;2022-10-31T17:50:35;13.90;99.90
33994;DHT22;20673;48.980;8.138;2022-10-31T17:53:01;13.80;99.90
33994;DHT22;20673;48.980;8.138;2022-10-31T17:55:27;13.70;99.90
33994;DHT22;20673;48.980;8.138;2022-10-31T17:57:53;13.80;99.90
33994;DHT22;20673;48.980;8.138;2022-10-31T18:00:19;13.70;99.90
33994;DHT22;20673;48.980;8.138;2022-10-31T18:02:47;13.60;99.90
33994;DHT22;20673;48.980;8.138;2022-10-31T18:05:13;13.60;99.90
33994;DHT22;20673;48.980;8.138;2022-10-31T18:07:39;13.60;99.90